createdAt,value
2022-12-31T00:00:02.369Z,3.70
2022-12-31T00:02:29.083Z,1.95
2022-12-31T00:04:55.631Z,2.15
2022-12-31T00:07:22.006Z,2.08
2022-12-31T00:09:48.567Z,2.60
2022-12-31T00:12:14.938Z,2.78
2022-12-31T00:14:41.354Z,2.88
2022-12-31T00:17:07.825Z,2.97
2022-12-31T00:19:34.352Z,3.92
2022-12-31T00:22:00.705Z,2.13
2022-12-31T00:24:30.902Z,2.90
2022-12-31T00:26:57.347Z,2.47
2022-12-31T00:29:23.712Z,2.97
2022-12-31T00:31:50.049Z,2.30
2022-12-31T00:34:16.435Z,2.58
2022-12-31T00:36:43.055Z,3.35
2022-12-31T00:39:10.273Z,2.55
2022-12-31T00:41:36.949Z,1.67
2022-12-31T00:44:03.866Z,1.58
2022-12-31T00:46:31.596Z,2.03
2022-12-31T00:48:58.097Z,1.40
2022-12-31T00:51:27.392Z,1.85
2022-12-31T00:53:55.361Z,2.97
2022-12-31T00:58:49.535Z,1.90
2022-12-31T01:01:21.882Z,2.42
2022-12-31T01:03:49.867Z,2.30
2022-12-31T01:06:17.176Z,1.85
2022-12-31T01:08:43.886Z,1.98
2022-12-31T01:11:24.003Z,1.65
2022-12-31T01:13:56.604Z,2.05
2022-12-31T01:16:25.792Z,1.13
2022-12-31T01:18:52.221Z,2.22
2022-12-31T01:21:19.504Z,3.03
2022-12-31T01:23:45.946Z,1.25
2022-12-31T01:26:14.341Z,6.45
2022-12-31T01:28:40.967Z,1.55
2022-12-31T01:31:09.589Z,3.53
2022-12-31T01:33:36.445Z,1.48
2022-12-31T01:36:11.458Z,2.13
2022-12-31T01:38:38.451Z,0.65
2022-12-31T01:41:05.395Z,1.15
2022-12-31T01:43:51.355Z,0.95
2022-12-31T01:46:43.768Z,0.63
2022-12-31T01:49:11.328Z,0.85
2022-12-31T01:51:38.397Z,1.33
2022-12-31T01:54:07.328Z,1.25
2022-12-31T01:56:34.416Z,1.30
2022-12-31T01:59:01.508Z,1.38
2022-12-31T02:01:29.824Z,1.42
2022-12-31T02:03:57.295Z,1.35
2022-12-31T02:06:35.159Z,0.93
2022-12-31T02:09:01.818Z,1.30
2022-12-31T02:11:31.346Z,1.13
2022-12-31T02:14:02.299Z,2.78
2022-12-31T02:16:37.748Z,1.67
2022-12-31T02:19:19.553Z,1.75
2022-12-31T02:21:55.716Z,1.33
2022-12-31T02:24:48.360Z,2.10
2022-12-31T02:27:39.565Z,2.95
2022-12-31T02:30:11.749Z,2.65
2022-12-31T02:33:03.027Z,2.97
2022-12-31T02:35:34.509Z,2.53
2022-12-31T02:38:05.088Z,2.20
2022-12-31T02:40:34.494Z,1.27
2022-12-31T02:43:00.884Z,1.17
2022-12-31T02:45:31.305Z,2.35
2022-12-31T02:48:12.233Z,2.40
2022-12-31T02:51:12.777Z,2.97
2022-12-31T02:53:48.067Z,1.88
2022-12-31T02:56:31.428Z,1.48
2022-12-31T02:59:19.970Z,1.48
2022-12-31T03:02:09.470Z,2.28
2022-12-31T03:04:36.621Z,3.67
2022-12-31T03:07:13.877Z,2.30
2022-12-31T03:09:40.320Z,1.90
2022-12-31T03:12:27.613Z,2.75
2022-12-31T03:14:54.142Z,4.75
2022-12-31T03:17:20.603Z,1.02
2022-12-31T03:20:05.510Z,3.10
2022-12-31T03:22:34.198Z,2.25
2022-12-31T03:25:26.012Z,5.03
2022-12-31T03:27:52.740Z,2.70
2022-12-31T03:30:20.376Z,2.63
2022-12-31T03:35:15.281Z,3.38
2022-12-31T03:37:42.767Z,2.40
2022-12-31T03:40:11.522Z,3.85
2022-12-31T03:42:38.157Z,2.97
2022-12-31T03:45:05.242Z,2.20
2022-12-31T03:47:31.621Z,2.42
2022-12-31T03:49:57.965Z,1.05
2022-12-31T03:52:24.347Z,1.55
2022-12-31T03:54:50.750Z,4.13
2022-12-31T03:57:17.251Z,1.83
2022-12-31T03:59:43.679Z,3.40
2022-12-31T04:02:10.445Z,2.17
2022-12-31T04:04:36.915Z,2.47
2022-12-31T04:07:03.329Z,2.22
2022-12-31T04:09:29.693Z,1.33
2022-12-31T04:11:56.016Z,2.45
2022-12-31T04:14:22.386Z,1.75
2022-12-31T04:16:48.826Z,2.30
2022-12-31T04:19:15.212Z,1.40
2022-12-31T04:21:41.617Z,4.35
2022-12-31T04:24:08.031Z,1.80
2022-12-31T04:26:35.036Z,2.55
2022-12-31T04:29:01.521Z,3.13
2022-12-31T04:31:28.120Z,2.80
2022-12-31T04:33:54.569Z,2.25
2022-12-31T04:36:20.995Z,3.40
2022-12-31T04:38:47.456Z,3.83
2022-12-31T04:41:20.829Z,2.08
2022-12-31T04:43:52.202Z,2.40
2022-12-31T04:46:21.335Z,3.35
2022-12-31T04:48:47.860Z,2.55
2022-12-31T04:51:14.680Z,2.50
2022-12-31T04:53:41.311Z,1.90
2022-12-31T04:56:07.949Z,4.03
2022-12-31T04:58:34.668Z,2.88
2022-12-31T05:01:01.240Z,3.83
2022-12-31T05:03:27.893Z,2.33
2022-12-31T05:05:54.882Z,4.53
2022-12-31T05:08:21.256Z,1.92
2022-12-31T05:10:48.982Z,3.45
2022-12-31T05:13:15.721Z,2.55
2022-12-31T05:15:42.497Z,2.92
2022-12-31T05:18:09.238Z,2.08
2022-12-31T05:20:35.572Z,1.88
2022-12-31T05:23:01.971Z,2.60
2022-12-31T05:25:28.410Z,2.90
2022-12-31T05:27:54.805Z,1.55
2022-12-31T05:30:21.513Z,2.40
2022-12-31T05:32:47.919Z,1.30
2022-12-31T05:35:14.558Z,2.35
2022-12-31T05:37:40.966Z,2.30
2022-12-31T05:40:07.800Z,2.13
2022-12-31T05:42:34.543Z,2.95
2022-12-31T05:45:00.911Z,2.05
2022-12-31T05:47:27.460Z,3.35
2022-12-31T05:49:53.799Z,5.03
2022-12-31T05:52:20.763Z,2.53
2022-12-31T05:54:47.157Z,1.52
2022-12-31T05:57:13.609Z,2.03
2022-12-31T05:59:39.964Z,2.05
2022-12-31T06:02:06.356Z,2.00
2022-12-31T06:04:32.826Z,2.30
2022-12-31T06:06:59.356Z,2.05
2022-12-31T06:09:25.827Z,4.32
2022-12-31T06:11:52.247Z,1.85
2022-12-31T06:14:18.694Z,1.92
2022-12-31T06:16:45.088Z,3.92
2022-12-31T06:19:11.425Z,2.28
2022-12-31T06:21:37.779Z,2.20
2022-12-31T06:24:04.508Z,2.42
2022-12-31T06:26:30.840Z,3.53
2022-12-31T06:28:57.185Z,2.38
2022-12-31T06:31:23.688Z,2.83
2022-12-31T06:33:50.092Z,1.65
2022-12-31T06:36:16.489Z,1.60
2022-12-31T06:38:43.729Z,1.30
2022-12-31T06:41:12.441Z,2.13
2022-12-31T06:43:40.083Z,5.57
2022-12-31T06:48:34.811Z,2.22
2022-12-31T06:51:15.041Z,2.63
2022-12-31T06:53:43.688Z,4.70
2022-12-31T06:56:34.075Z,2.35
2022-12-31T06:59:01.282Z,3.10
2022-12-31T07:01:38.973Z,3.20
2022-12-31T07:04:26.212Z,2.80
2022-12-31T07:07:06.753Z,2.15
2022-12-31T07:09:52.927Z,2.63
2022-12-31T07:12:42.558Z,2.40
2022-12-31T07:15:33.793Z,2.15
2022-12-31T07:18:37.211Z,2.10
2022-12-31T07:21:03.742Z,3.83
2022-12-31T07:23:30.326Z,2.47
2022-12-31T07:26:24.257Z,3.83
2022-12-31T07:29:11.493Z,2.45
2022-12-31T07:32:18.515Z,3.47
2022-12-31T07:35:12.115Z,2.58
2022-12-31T07:37:59.896Z,3.95
2022-12-31T07:40:34.572Z,2.58
2022-12-31T07:43:22.217Z,1.33
2022-12-31T07:46:13.229Z,2.58
2022-12-31T07:48:39.842Z,1.85
2022-12-31T07:51:06.691Z,1.85
2022-12-31T07:53:33.279Z,2.70
2022-12-31T07:56:00.829Z,4.63
2022-12-31T08:01:17.048Z,2.15
2022-12-31T08:04:10.052Z,2.15
2022-12-31T08:06:56.879Z,2.67
2022-12-31T08:09:31.196Z,2.90
2022-12-31T08:11:59.505Z,2.92
2022-12-31T08:14:26.793Z,2.45
2022-12-31T08:16:53.978Z,2.40
2022-12-31T08:19:27.608Z,3.80
2022-12-31T08:22:40.514Z,2.53
2022-12-31T08:25:33.027Z,3.72
2022-12-31T08:28:14.685Z,3.45
2022-12-31T08:31:10.939Z,3.95
2022-12-31T08:33:49.053Z,2.38
2022-12-31T08:36:36.212Z,2.80
2022-12-31T08:39:25.397Z,5.13
2022-12-31T08:41:54.663Z,3.67
2022-12-31T08:44:44.752Z,5.70
2022-12-31T08:47:26.351Z,2.15
2022-12-31T08:49:52.901Z,4.70
2022-12-31T08:52:23.782Z,3.13
2022-12-31T08:54:50.432Z,3.58
2022-12-31T08:57:26.243Z,3.05
2022-12-31T08:59:57.880Z,3.47
2022-12-31T09:02:48.279Z,1.98
2022-12-31T09:05:31.161Z,3.60
2022-12-31T09:08:14.693Z,2.65
2022-12-31T09:10:51.587Z,2.53
2022-12-31T09:13:27.994Z,2.47
2022-12-31T09:16:24.901Z,2.90
2022-12-31T09:18:51.318Z,2.92
2022-12-31T09:21:17.857Z,2.80
2022-12-31T09:23:44.426Z,3.35
2022-12-31T09:26:35.819Z,4.07
2022-12-31T09:29:15.803Z,4.28
2022-12-31T09:31:51.539Z,2.47
2022-12-31T09:34:27.183Z,4.60
2022-12-31T09:37:07.101Z,5.15
2022-12-31T09:39:44.997Z,4.05
2022-12-31T09:42:48.264Z,2.88
2022-12-31T09:45:34.005Z,3.45
2022-12-31T09:48:00.268Z,4.38
2022-12-31T09:50:49.352Z,3.45
2022-12-31T09:53:30.919Z,2.70
2022-12-31T09:56:17.647Z,2.25
2022-12-31T09:59:06.899Z,3.35
2022-12-31T10:01:55.666Z,2.63
2022-12-31T10:04:43.246Z,2.17
2022-12-31T10:07:25.001Z,5.18
2022-12-31T10:09:54.560Z,2.70
2022-12-31T10:12:34.780Z,3.20
2022-12-31T10:17:49.408Z,2.35
2022-12-31T10:20:32.440Z,2.67
2022-12-31T10:23:24.501Z,2.65
2022-12-31T10:26:02.850Z,3.65
2022-12-31T10:28:54.804Z,2.70
2022-12-31T10:31:37.584Z,3.28
2022-12-31T10:34:34.854Z,1.77
2022-12-31T10:37:10.972Z,5.05
2022-12-31T10:39:59.661Z,1.77
2022-12-31T10:42:50.484Z,4.35
2022-12-31T10:45:39.018Z,3.05
2022-12-31T10:48:17.339Z,5.20
2022-12-31T10:51:18.938Z,4.93
2022-12-31T10:54:05.718Z,4.32
2022-12-31T10:56:58.569Z,2.30
2022-12-31T11:00:10.166Z,3.83
2022-12-31T11:03:05.761Z,3.47
2022-12-31T11:06:00.117Z,3.83
2022-12-31T11:08:41.826Z,3.58
2022-12-31T11:11:26.471Z,2.30
2022-12-31T11:14:14.533Z,2.90
2022-12-31T11:17:05.639Z,2.65
2022-12-31T11:19:40.961Z,5.35
2022-12-31T11:22:29.061Z,3.60
2022-12-31T11:25:22.538Z,3.45
2022-12-31T11:28:22.096Z,2.90
2022-12-31T11:31:20.091Z,3.53
2022-12-31T11:34:13.837Z,3.25
2022-12-31T11:36:52.955Z,3.25
2022-12-31T11:39:42.586Z,3.90
2022-12-31T11:42:21.002Z,3.85
2022-12-31T11:45:04.697Z,6.00
2022-12-31T11:48:04.250Z,4.57
2022-12-31T11:50:38.510Z,4.38
2022-12-31T11:53:23.884Z,5.38
2022-12-31T11:56:00.464Z,3.10
2022-12-31T11:58:28.915Z,6.03
2022-12-31T12:01:11.356Z,3.92
2022-12-31T12:03:42.527Z,3.35
2022-12-31T12:06:14.201Z,4.75
2022-12-31T12:08:41.222Z,3.88
2022-12-31T12:11:18.703Z,3.20
2022-12-31T12:13:45.108Z,3.35
2022-12-31T12:16:11.628Z,4.32
2022-12-31T12:18:45.290Z,3.80
2022-12-31T12:21:12.565Z,3.78
2022-12-31T12:23:39.502Z,2.80
2022-12-31T12:26:06.916Z,3.63
2022-12-31T12:31:20.672Z,5.75
2022-12-31T12:33:47.918Z,4.93
2022-12-31T12:36:15.823Z,3.83
2022-12-31T12:38:43.129Z,1.67
2022-12-31T12:41:25.324Z,2.42
2022-12-31T12:44:06.068Z,2.78
2022-12-31T12:46:48.308Z,4.53
2022-12-31T12:49:37.095Z,4.15
2022-12-31T12:52:37.891Z,2.55
2022-12-31T12:55:57.901Z,3.92
2022-12-31T12:58:36.108Z,3.00
2022-12-31T13:01:12.432Z,3.80
2022-12-31T13:04:23.437Z,3.15
2022-12-31T13:06:58.192Z,3.88
2022-12-31T13:09:51.413Z,2.67
2022-12-31T13:12:23.663Z,3.95
2022-12-31T13:15:03.868Z,3.38
2022-12-31T13:20:06.149Z,3.08
2022-12-31T13:22:37.749Z,2.92
2022-12-31T13:25:21.913Z,4.47
2022-12-31T13:27:50.665Z,2.50
2022-12-31T13:30:23.308Z,3.28
2022-12-31T13:32:57.602Z,2.05
2022-12-31T13:35:34.419Z,2.72
2022-12-31T13:38:09.841Z,4.90
2022-12-31T13:41:00.376Z,2.90
2022-12-31T13:43:43.393Z,4.35
2022-12-31T13:46:26.445Z,3.65
2022-12-31T13:48:56.481Z,3.00
2022-12-31T13:51:34.854Z,4.97
2022-12-31T13:54:13.712Z,3.15
2022-12-31T13:56:40.881Z,3.20
2022-12-31T13:59:15.496Z,3.20
2022-12-31T14:02:00.677Z,4.20
2022-12-31T14:04:50.478Z,2.42
2022-12-31T14:07:20.628Z,2.50
2022-12-31T14:09:47.127Z,3.85
2022-12-31T14:12:17.853Z,2.90
2022-12-31T14:15:01.703Z,3.38
2022-12-31T14:17:54.284Z,3.10
2022-12-31T14:20:42.639Z,4.30
2022-12-31T14:23:23.907Z,3.63
2022-12-31T14:26:01.389Z,2.88
2022-12-31T14:28:32.331Z,2.00
2022-12-31T14:31:13.755Z,3.15
2022-12-31T14:34:07.735Z,2.88
2022-12-31T14:36:50.096Z,2.78
2022-12-31T14:39:29.438Z,4.85
2022-12-31T14:42:15.976Z,2.00
2022-12-31T14:47:27.172Z,4.30
2022-12-31T14:50:06.039Z,3.55
2022-12-31T14:52:35.118Z,2.70
2022-12-31T14:55:07.854Z,2.92
2022-12-31T14:58:09.640Z,2.85
2022-12-31T15:00:34.279Z,1.67
2022-12-31T15:03:23.488Z,2.72
2022-12-31T15:06:19.365Z,3.40
2022-12-31T15:09:07.491Z,4.05
2022-12-31T15:11:45.981Z,1.63
2022-12-31T15:14:24.790Z,2.00
2022-12-31T15:17:09.091Z,2.35
2022-12-31T15:19:56.830Z,3.78
2022-12-31T15:22:35.437Z,2.80
2022-12-31T15:25:01.946Z,4.68
2022-12-31T15:27:30.477Z,3.63
2022-12-31T15:29:56.962Z,3.50
2022-12-31T15:32:31.844Z,3.67
2022-12-31T15:35:29.508Z,4.22
2022-12-31T15:38:04.036Z,4.55
2022-12-31T15:40:30.705Z,2.58
2022-12-31T15:43:04.333Z,1.70
2022-12-31T15:45:37.603Z,2.08
2022-12-31T15:48:26.031Z,3.53
2022-12-31T15:50:55.537Z,3.40
2022-12-31T15:53:29.609Z,2.58
2022-12-31T15:55:58.199Z,3.80
2022-12-31T15:58:26.895Z,3.20
2022-12-31T16:01:02.825Z,2.50
2022-12-31T16:03:30.853Z,3.60
2022-12-31T16:06:02.494Z,3.83
2022-12-31T16:08:31.495Z,2.92
2022-12-31T16:10:58.423Z,3.03
2022-12-31T16:13:26.320Z,4.30
2022-12-31T16:16:00.283Z,2.90
2022-12-31T16:18:36.732Z,3.03
2022-12-31T16:21:03.158Z,3.25
2022-12-31T16:23:29.602Z,3.08
2022-12-31T16:25:59.875Z,4.20
2022-12-31T16:28:30.446Z,2.92
2022-12-31T16:31:03.383Z,4.20
2022-12-31T16:33:30.479Z,4.65
2022-12-31T16:35:58.619Z,5.03
2022-12-31T16:38:33.131Z,4.07
2022-12-31T16:41:02.183Z,5.25
2022-12-31T16:43:39.720Z,4.63
2022-12-31T16:46:16.871Z,3.72
2022-12-31T16:48:48.728Z,5.75
2022-12-31T16:51:23.585Z,5.28
2022-12-31T16:53:50.308Z,4.03
2022-12-31T16:56:25.032Z,5.82
2022-12-31T16:58:59.052Z,4.20
2022-12-31T17:03:55.666Z,3.88
2022-12-31T17:06:22.364Z,3.70
2022-12-31T17:09:00.786Z,5.72
2022-12-31T17:11:33.661Z,4.57
2022-12-31T17:14:13.687Z,4.57
2022-12-31T17:16:57.746Z,4.40
2022-12-31T17:19:36.940Z,4.47
2022-12-31T17:22:05.247Z,4.28
2022-12-31T17:24:31.600Z,3.95
2022-12-31T17:27:04.219Z,4.75
2022-12-31T17:29:30.687Z,4.80
2022-12-31T17:31:59.455Z,5.70
2022-12-31T17:34:47.408Z,4.88
2022-12-31T17:38:07.267Z,5.68
2022-12-31T17:40:51.574Z,9.32
2022-12-31T17:44:10.314Z,4.57
2022-12-31T17:47:20.945Z,6.00
2022-12-31T17:53:56.316Z,7.70
2022-12-31T18:00:22.964Z,6.40
2022-12-31T18:03:21.759Z,4.22
2022-12-31T18:05:53.217Z,4.90
2022-12-31T18:09:04.551Z,3.97
2022-12-31T18:11:32.346Z,4.53
2022-12-31T18:17:59.450Z,3.13
2022-12-31T18:20:26.373Z,4.72
2022-12-31T18:22:55.893Z,3.95
2022-12-31T18:25:30.388Z,3.60
2022-12-31T18:28:08.790Z,3.78
2022-12-31T18:30:35.293Z,5.35
2022-12-31T18:33:09.454Z,4.43
2022-12-31T18:38:57.895Z,4.28
2022-12-31T18:41:36.464Z,2.05
2022-12-31T18:44:14.772Z,4.38
2022-12-31T18:46:41.354Z,4.28
2022-12-31T18:49:16.357Z,2.50
2022-12-31T18:51:42.786Z,6.32
2022-12-31T18:54:10.619Z,3.15
2022-12-31T18:56:47.187Z,5.95
2022-12-31T18:59:18.125Z,4.63
2022-12-31T19:01:51.992Z,6.60
2022-12-31T19:06:54.767Z,6.80
2022-12-31T19:12:14.004Z,8.45
2022-12-31T19:14:43.576Z,4.90
2022-12-31T19:19:35.251Z,5.80
2022-12-31T19:22:02.543Z,5.85
2022-12-31T19:24:29.045Z,8.63
2022-12-31T19:26:55.460Z,9.55
2022-12-31T19:29:26.752Z,8.55
2022-12-31T19:31:53.491Z,6.25
2022-12-31T19:34:19.918Z,8.10
2022-12-31T19:36:46.313Z,11.32
2022-12-31T19:39:17.202Z,21.17
2022-12-31T19:41:44.361Z,11.40
2022-12-31T19:44:16.126Z,8.98
2022-12-31T19:46:42.603Z,7.40
2022-12-31T19:49:13.203Z,8.27
2022-12-31T19:51:39.822Z,6.32
2022-12-31T19:54:06.982Z,7.32
2022-12-31T19:56:33.548Z,11.07
2022-12-31T19:59:05.496Z,6.43
2022-12-31T20:01:32.005Z,8.70
2022-12-31T20:03:58.519Z,9.70
2022-12-31T20:06:24.952Z,10.27
2022-12-31T20:08:51.300Z,12.85
2022-12-31T20:11:20.416Z,9.82
2022-12-31T20:13:48.205Z,9.02
2022-12-31T20:16:17.092Z,9.73
2022-12-31T20:18:44.746Z,9.13
2022-12-31T20:23:38.798Z,7.85
2022-12-31T20:26:05.346Z,7.45
2022-12-31T20:28:31.718Z,6.72
2022-12-31T20:30:58.109Z,7.15
2022-12-31T20:33:24.484Z,7.35
2022-12-31T20:35:51.137Z,8.35
2022-12-31T20:38:17.525Z,4.93
2022-12-31T20:40:46.861Z,6.63
2022-12-31T20:43:13.911Z,5.50
2022-12-31T20:45:41.411Z,5.53
2022-12-31T20:50:34.428Z,9.23
2022-12-31T20:53:00.888Z,6.40
2022-12-31T20:55:27.430Z,6.28
2022-12-31T20:57:53.872Z,6.72
2022-12-31T21:00:20.216Z,6.32
2022-12-31T21:02:53.160Z,7.97
2022-12-31T21:05:24.324Z,5.88
2022-12-31T21:07:50.898Z,9.63
2022-12-31T21:10:17.387Z,7.82
2022-12-31T21:12:43.804Z,9.73
2022-12-31T21:15:13.196Z,7.35
2022-12-31T21:17:39.796Z,9.15
2022-12-31T21:20:06.888Z,6.03
2022-12-31T21:22:33.795Z,7.40
2022-12-31T21:25:06.622Z,5.18
2022-12-31T21:27:33.244Z,5.30
2022-12-31T21:30:18.184Z,5.47
2022-12-31T21:32:45.633Z,6.70
2022-12-31T21:35:41.594Z,5.32
2022-12-31T21:38:02.142Z,4.55
2022-12-31T21:40:29.257Z,4.43
2022-12-31T21:42:55.776Z,4.38
2022-12-31T21:45:22.183Z,5.15
2022-12-31T21:48:07.231Z,4.95
2022-12-31T21:50:34.120Z,7.97
2022-12-31T21:53:00.531Z,8.32
2022-12-31T21:55:45.528Z,8.25
2022-12-31T21:58:28.316Z,3.15
2022-12-31T22:01:17.356Z,5.10
2022-12-31T22:03:44.492Z,4.07
2022-12-31T22:06:14.017Z,4.50
2022-12-31T22:08:41.804Z,4.80
2022-12-31T22:11:09.309Z,3.70
2022-12-31T22:13:36.079Z,4.28
2022-12-31T22:16:05.667Z,5.05
2022-12-31T22:18:35.591Z,3.90
2022-12-31T22:21:19.412Z,4.10
2022-12-31T22:23:54.480Z,5.00
2022-12-31T22:26:23.400Z,4.93
2022-12-31T22:28:50.697Z,4.93
2022-12-31T22:31:19.512Z,8.07
2022-12-31T22:33:46.128Z,6.32
2022-12-31T22:36:15.614Z,7.03
2022-12-31T22:38:42.547Z,11.73
2022-12-31T22:41:19.624Z,8.60
2022-12-31T22:43:48.585Z,8.57
2022-12-31T22:46:16.403Z,8.05
2022-12-31T22:48:43.198Z,9.15
2022-12-31T22:51:13.832Z,8.43
2022-12-31T22:53:41.224Z,5.65
2022-12-31T22:56:08.405Z,6.60
2022-12-31T22:58:34.841Z,5.88
2022-12-31T23:01:04.922Z,10.32
2022-12-31T23:03:31.581Z,15.43
2022-12-31T23:05:58.022Z,20.55
2022-12-31T23:08:24.531Z,78.32
2022-12-31T23:11:05.185Z,87.63
2022-12-31T23:13:56.359Z,64.47
2022-12-31T23:16:42.684Z,143.05
2022-12-31T23:19:27.980Z,206.32
2022-12-31T23:22:13.195Z,113.32
2022-12-31T23:24:39.733Z,121.78
2022-12-31T23:27:06.446Z,107.70
2022-12-31T23:29:32.949Z,129.65
2022-12-31T23:31:59.386Z,121.20
2022-12-31T23:34:25.796Z,102.45
2022-12-31T23:36:52.332Z,100.15
2022-12-31T23:39:18.697Z,101.60
2022-12-31T23:41:45.081Z,96.20
2022-12-31T23:44:14.258Z,97.10
2022-12-31T23:46:41.091Z,106.05
2022-12-31T23:49:07.642Z,100.20
2022-12-31T23:51:35.944Z,121.45
2022-12-31T23:54:05.809Z,100.90
2022-12-31T23:56:32.188Z,89.75
2022-12-31T23:58:59.767Z,81.07
